Arboga, California
Current Conditions -  °F | °C
As of 1:53 PM on Monday 26 Jan 2015 (Local Time) from KMYV Reporting Station
Clear Clear  
Wind Chill: 17°   Ceiling: Unl
Heat Index: 17°   Visibility: 8mi
Dew Point:   Wind: 3mph
Humidity: 60%   Direction: 40°NE
Pressure: 29.99"   Gusts: NA
Location:  39.0904°N, 121.552°W
Report Text: KMYV 262153Z AUTO 04003KT 8SM CLR 17/09 A2999 RMK AO2 SLP159 T01670089
Loading
Personal Weather Stations






























Interactive Weather Map New forecast layout! Learn more

10-Day Weather Forecast

Advertisements
Track Severe Weather on mobile